Time;durP1;ratioP1;P1;durP2;ratioP2;P2;SDS_P1;SDS_P2;PMS_P1;PMS_P2;Temp;Humidity;BMP_temperature;BMP_pressure;BME280_temperature;BME280_humidity;BME280_pressure;Samples;Min_cycle;Max_cycle;Signal;HPM_P1;HPM_P2
2021/09/23 00:00:05;;;;;;;8.13;4.33;;;10.80;99.90;;;;;;5051001;28;20980;-74
2021/09/23 00:03:20;;;;;;;13.83;4.00;;;10.90;99.90;;;;;;5051230;28;20525;-74
2021/09/23 00:06:06;;;;;;;4.30;3.47;;;11.00;99.90;;;;;;5053049;28;20563;-74
2021/09/23 00:08:52;;;;;;;4.87;3.90;;;11.00;99.90;;;;;;5048985;28;21086;-75
2021/09/23 00:11:39;;;;;;;4.17;3.70;;;10.90;99.90;;;;;;5044395;28;20957;-73
2021/09/23 00:14:25;;;;;;;6.50;4.60;;;10.90;99.90;;;;;;5044599;28;20874;-74
2021/09/23 00:17:11;;;;;;;4.13;3.60;;;10.90;99.90;;;;;;5050905;28;20441;-75
2021/09/23 00:19:56;;;;;;;5.17;4.13;;;10.90;99.90;;;;;;5049977;28;20449;-74
2021/09/23 00:22:42;;;;;;;4.60;3.90;;;10.90;99.90;;;;;;5044016;28;20550;-74
2021/09/23 00:25:28;;;;;;;4.23;3.80;;;11.00;99.90;;;;;;5041102;28;20484;-74
2021/09/23 00:28:15;;;;;;;4.73;3.80;;;11.00;99.90;;;;;;5044827;28;20575;-72
2021/09/23 00:31:01;;;;;;;4.03;3.63;;;11.00;99.90;;;;;;5043970;28;20855;-74
2021/09/23 00:33:47;;;;;;;4.93;3.70;;;11.00;99.90;;;;;;5051583;28;20486;-74
2021/09/23 00:36:32;;;;;;;4.40;3.70;;;10.90;99.90;;;;;;5048426;28;20950;-73
2021/09/23 00:39:21;;;;;;;6.13;4.00;;;10.80;99.90;;;;;;5045117;28;20467;-74
2021/09/23 00:42:07;;;;;;;12.33;4.27;;;10.70;99.90;;;;;;5050750;28;20862;-73
2021/09/23 00:44:58;;;;;;;5.80;4.00;;;10.70;99.90;;;;;;5050174;28;20421;-74
2021/09/23 00:47:44;;;;;;;7.00;4.90;;;10.50;99.90;;;;;;5051622;28;20934;-74
2021/09/23 00:50:30;;;;;;;8.50;4.33;;;10.40;99.90;;;;;;5046894;28;20818;-75
2021/09/23 00:53:19;;;;;;;5.33;3.90;;;10.40;99.90;;;;;;5051114;28;20422;-74
2021/09/23 00:56:05;;;;;;;6.73;4.33;;;10.30;99.90;;;;;;5050221;28;20490;-74
2021/09/23 00:58:50;;;;;;;9.03;4.90;;;10.30;99.90;;;;;;5049928;28;20474;-74
2021/09/23 01:01:44;;;;;;;9.20;4.57;;;10.20;99.90;;;;;;5041895;28;20602;-74
2021/09/23 01:04:30;;;;;;;12.17;5.60;;;10.20;99.90;;;;;;5042564;28;20467;-71
2021/09/23 01:07:18;;;;;;;7.27;4.40;;;10.10;99.90;;;;;;5048871;28;20451;-73
2021/09/23 01:10:04;;;;;;;7.23;4.97;;;10.20;99.90;;;;;;5042476;28;20465;-74
2021/09/23 01:12:50;;;;;;;5.90;4.60;;;10.20;99.90;;;;;;5047568;28;20451;-74
2021/09/23 01:15:36;;;;;;;12.00;4.70;;;10.30;99.90;;;;;;5050749;28;20466;-74
2021/09/23 01:18:23;;;;;;;8.23;4.20;;;10.30;99.90;;;;;;5044353;28;20421;-73
2021/09/23 01:21:11;;;;;;;5.10;4.60;;;10.30;99.90;;;;;;5047874;28;20797;-74
2021/09/23 01:23:57;;;;;;;6.80;4.20;;;10.30;99.90;;;;;;5049821;28;20451;-74
2021/09/23 01:26:47;;;;;;;5.80;4.37;;;10.30;99.90;;;;;;5046533;28;20947;-74
2021/09/23 01:29:34;;;;;;;7.50;4.43;;;10.30;99.90;;;;;;5051952;28;20450;-74
2021/09/23 01:32:21;;;;;;;5.80;4.37;;;10.30;99.90;;;;;;5051294;28;20980;-74
2021/09/23 01:35:07;;;;;;;5.60;4.67;;;10.40;99.90;;;;;;5048948;28;20492;-74
2021/09/23 01:37:55;;;;;;;5.50;4.60;;;10.50;99.90;;;;;;5051425;28;20483;-74
2021/09/23 01:40:40;;;;;;;14.10;4.83;;;10.40;99.90;;;;;;5050680;28;20450;-73
2021/09/23 01:43:26;;;;;;;5.43;4.67;;;10.40;99.90;;;;;;5045095;28;20998;-74
2021/09/23 01:46:11;;;;;;;7.80;5.03;;;10.40;99.90;;;;;;5051108;28;20398;-74
2021/09/23 01:48:57;;;;;;;7.37;4.40;;;10.50;99.90;;;;;;5050506;28;20435;-74
2021/09/23 01:51:43;;;;;;;7.67;4.60;;;10.50;99.90;;;;;;5048033;28;20485;-73
2021/09/23 01:54:29;;;;;;;6.60;4.57;;;10.40;99.90;;;;;;5041897;28;20497;-71
2021/09/23 01:57:15;;;;;;;7.40;5.47;;;10.40;99.90;;;;;;5037600;28;20808;-74
2021/09/23 02:00:01;;;;;;;8.80;5.20;;;10.30;99.90;;;;;;5050488;28;20448;-74
2021/09/23 02:02:48;;;;;;;16.70;4.87;;;10.30;99.90;;;;;;5050262;28;20481;-74
2021/09/23 02:05:34;;;;;;;4.80;3.93;;;10.30;99.90;;;;;;5043205;28;20447;-74
2021/09/23 02:08:20;;;;;;;10.53;4.60;;;10.20;99.90;;;;;;5049685;28;20462;-74
2021/09/23 02:11:07;;;;;;;6.90;5.00;;;10.20;99.90;;;;;;5047660;28;20574;-74
2021/09/23 02:13:53;;;;;;;5.80;4.70;;;10.00;99.90;;;;;;5047639;28;20451;-74
2021/09/23 02:16:38;;;;;;;6.63;5.30;;;9.90;99.90;;;;;;5038869;28;20448;-75
2021/09/23 02:19:25;;;;;;;5.30;4.13;;;9.90;99.90;;;;;;5041885;28;20595;-74
2021/09/23 02:22:10;;;;;;;5.10;4.60;;;9.90;99.90;;;;;;5048350;28;20478;-74
2021/09/23 02:24:56;;;;;;;5.90;5.03;;;9.90;99.90;;;;;;5039993;28;20426;-74
2021/09/23 02:27:43;;;;;;;6.47;4.33;;;9.80;99.90;;;;;;5041927;28;20459;-74
2021/09/23 02:30:29;;;;;;;6.53;4.10;;;9.70;99.90;;;;;;5036887;28;20525;-74
2021/09/23 02:33:15;;;;;;;5.60;4.70;;;9.60;99.90;;;;;;5043679;28;20808;-74
2021/09/23 02:36:01;;;;;;;5.20;4.47;;;9.60;99.90;;;;;;5048693;28;20446;-73
2021/09/23 02:38:47;;;;;;;5.83;4.03;;;9.50;99.90;;;;;;5046353;28;20475;-74
2021/09/23 02:41:33;;;;;;;7.00;4.53;;;9.40;99.90;;;;;;5043451;28;20445;-74
2021/09/23 02:44:20;;;;;;;6.00;4.87;;;9.60;99.90;;;;;;5040018;28;20433;-74
2021/09/23 02:47:06;;;;;;;5.03;3.93;;;9.50;99.90;;;;;;5039667;28;20794;-74
2021/09/23 02:49:51;;;;;;;8.40;5.17;;;9.60;99.90;;;;;;5045737;28;20828;-74
2021/09/23 02:52:38;;;;;;;5.57;3.90;;;9.70;99.90;;;;;;5053511;28;20527;-74
2021/09/23 02:55:24;;;;;;;6.20;5.00;;;9.90;99.90;;;;;;5050217;28;20436;-74
2021/09/23 02:58:10;;;;;;;8.10;4.77;;;9.90;99.90;;;;;;5052497;28;20469;-74
2021/09/23 03:00:57;;;;;;;8.27;4.20;;;10.00;99.90;;;;;;5042888;28;20482;-74
2021/09/23 03:03:42;;;;;;;7.90;4.43;;;10.00;99.90;;;;;;5046532;28;20956;-75
2021/09/23 03:06:28;;;;;;;5.00;4.10;;;10.00;99.90;;;;;;5050612;28;20440;-74
2021/09/23 03:09:13;;;;;;;4.47;3.60;;;9.90;99.90;;;;;;5048201;28;20683;-74
2021/09/23 03:11:59;;;;;;;4.60;3.90;;;9.90;99.90;;;;;;5050821;28;20437;-73
2021/09/23 03:14:44;;;;;;;5.37;4.13;;;9.70;99.90;;;;;;5049260;28;20523;-74
2021/09/23 03:17:31;;;;;;;4.83;3.90;;;9.70;99.90;;;;;;5046356;28;20518;-74
2021/09/23 03:20:21;;;;;;;7.00;4.63;;;9.60;99.90;;;;;;5040981;28;20618;-73
2021/09/23 03:23:07;;;;;;;4.97;3.50;;;9.60;99.90;;;;;;5047315;28;20473;-74
2021/09/23 03:25:53;;;;;;;5.37;4.27;;;9.50;99.90;;;;;;5048215;28;20501;-74
2021/09/23 03:28:39;;;;;;;7.47;4.30;;;9.60;99.90;;;;;;5046112;28;20554;-74
2021/09/23 03:31:25;;;;;;;6.67;4.60;;;9.70;99.90;;;;;;5046951;28;20550;-74
2021/09/23 03:34:12;;;;;;;6.10;4.80;;;9.80;99.90;;;;;;5048545;28;20516;-74
2021/09/23 03:36:58;;;;;;;6.83;4.00;;;9.80;99.90;;;;;;5050387;28;20924;-74
2021/09/23 03:39:43;;;;;;;5.88;4.32;;;9.90;99.90;;;;;;5009011;22;1230386;-73
2021/09/23 03:42:29;;;;;;;4.13;3.73;;;9.80;99.90;;;;;;5029231;28;20231;-74
2021/09/23 03:45:15;;;;;;;4.47;4.07;;;9.70;99.90;;;;;;5032920;28;20444;-74
2021/09/23 03:48:00;;;;;;;5.73;4.10;;;9.60;99.90;;;;;;5030498;28;20858;-74
2021/09/23 03:50:48;;;;;;;6.23;4.07;;;9.50;99.90;;;;;;5032933;28;20450;-75
2021/09/23 03:53:38;;;;;;;4.87;3.70;;;9.40;99.90;;;;;;5026831;28;20519;-74
2021/09/23 03:56:23;;;;;;;4.70;4.10;;;9.50;99.90;;;;;;5032312;28;20433;-74
2021/09/23 03:59:09;;;;;;;4.60;3.80;;;9.40;99.90;;;;;;5024070;28;21065;-74
2021/09/23 04:01:55;;;;;;;6.50;3.90;;;9.30;99.90;;;;;;5023419;28;20567;-73
2021/09/23 04:04:40;;;;;;;6.63;3.50;;;9.30;99.90;;;;;;5027035;28;20447;-74
2021/09/23 04:07:28;;;;;;;5.20;4.53;;;9.30;99.90;;;;;;5034907;28;20451;-74
2021/09/23 04:10:14;;;;;;;5.60;5.00;;;9.20;99.90;;;;;;5032020;28;20618;-74
2021/09/23 04:13:00;;;;;;;5.47;4.00;;;9.10;99.90;;;;;;5031359;28;20450;-74
2021/09/23 04:15:48;;;;;;;5.60;3.90;;;9.10;99.90;;;;;;5032401;28;20430;-74
2021/09/23 04:18:34;;;;;;;5.63;4.50;;;9.20;99.90;;;;;;5029805;28;20983;-75
2021/09/23 04:21:19;;;;;;;5.73;4.23;;;9.10;99.90;;;;;;5019502;28;20477;-74
2021/09/23 04:24:07;;;;;;;7.30;4.50;;;9.10;99.90;;;;;;5024875;28;20584;-73
2021/09/23 04:26:52;;;;;;;7.30;4.23;;;9.10;99.90;;;;;;5031403;28;20982;-74
2021/09/23 04:29:39;;;;;;;6.63;4.37;;;9.20;99.90;;;;;;5025303;28;20475;-74
2021/09/23 04:32:25;;;;;;;4.70;3.97;;;9.20;99.90;;;;;;5030290;28;20455;-73
2021/09/23 04:35:11;;;;;;;4.97;4.00;;;9.10;99.90;;;;;;5031586;28;20587;-74
2021/09/23 04:37:57;;;;;;;5.27;4.10;;;9.30;99.90;;;;;;5032876;28;20856;-74
2021/09/23 04:40:44;;;;;;;6.23;4.47;;;9.30;99.90;;;;;;5028279;28;20843;-74
2021/09/23 04:43:29;;;;;;;8.67;4.60;;;9.20;99.90;;;;;;5030481;28;20479;-74
2021/09/23 04:46:20;;;;;;;6.60;4.40;;;9.20;99.90;;;;;;5021744;28;20443;-74
2021/09/23 04:49:06;;;;;;;6.90;4.47;;;9.20;99.90;;;;;;5031400;28;21083;-75
2021/09/23 04:51:52;;;;;;;6.27;4.40;;;9.20;99.90;;;;;;5030271;28;20453;-73
2021/09/23 04:54:38;;;;;;;8.83;5.90;;;9.20;99.90;;;;;;5027387;28;20398;-74
2021/09/23 04:57:24;;;;;;;5.03;4.33;;;9.20;99.90;;;;;;5023578;28;20452;-75
2021/09/23 05:00:11;;;;;;;5.80;4.53;;;9.20;99.90;;;;;;5031224;28;20793;-74
2021/09/23 05:02:57;;;;;;;11.10;4.70;;;9.10;99.90;;;;;;5029133;28;20482;-74
2021/09/23 05:05:43;;;;;;;10.73;5.67;;;9.10;99.90;;;;;;5031871;28;20475;-73
2021/09/23 05:08:29;;;;;;;13.10;5.80;;;9.10;99.90;;;;;;5032117;28;20440;-74
2021/09/23 05:11:14;;;;;;;19.20;6.23;;;9.00;99.90;;;;;;5023770;28;20475;-73
2021/09/23 05:14:02;;;;;;;9.10;5.53;;;9.00;99.90;;;;;;5025640;28;21146;-74
2021/09/23 05:16:47;;;;;;;16.50;6.00;;;8.80;99.90;;;;;;5025404;28;20447;-74
2021/09/23 05:19:33;;;;;;;7.90;5.87;;;8.80;99.90;;;;;;5024189;28;20418;-74
2021/09/23 05:22:22;;;;;;;14.63;7.10;;;8.90;99.90;;;;;;5024540;28;20423;-73
2021/09/23 05:25:09;;;;;;;8.60;5.37;;;8.80;99.90;;;;;;5028199;28;20439;-74
2021/09/23 05:27:55;;;;;;;8.13;5.80;;;8.70;99.90;;;;;;5030850;28;20458;-74
2021/09/23 05:30:43;;;;;;;12.90;5.80;;;8.70;99.90;;;;;;5030827;28;20523;-73
2021/09/23 05:33:28;;;;;;;9.47;6.13;;;8.80;99.90;;;;;;5018524;28;20468;-74
2021/09/23 05:36:14;;;;;;;7.47;5.57;;;8.70;99.90;;;;;;5023640;28;20447;-74
2021/09/23 05:39:03;;;;;;;7.03;5.60;;;8.80;99.90;;;;;;5028263;28;20574;-74
2021/09/23 05:41:48;;;;;;;9.80;6.20;;;8.90;99.90;;;;;;5031108;28;20448;-74
2021/09/23 05:44:34;;;;;;;35.53;5.90;;;9.00;99.90;;;;;;5031684;28;20475;-74
2021/09/23 05:47:21;;;;;;;44.80;6.03;;;8.80;99.90;;;;;;5027817;28;20499;-73
2021/09/23 05:50:07;;;;;;;30.23;6.57;;;8.70;99.90;;;;;;5022360;28;20989;-74
2021/09/23 05:52:53;;;;;;;5.20;4.70;;;8.70;99.90;;;;;;5024211;28;20483;-75
2021/09/23 05:55:39;;;;;;;6.60;5.40;;;8.70;99.90;;;;;;5019463;28;20577;-74
2021/09/23 05:58:25;;;;;;;4.97;4.47;;;8.80;99.90;;;;;;5019314;28;20965;-74
2021/09/23 06:01:11;;;;;;;5.00;4.10;;;8.90;99.90;;;;;;5029204;28;20473;-73
2021/09/23 06:03:58;;;;;;;7.10;4.97;;;9.00;99.90;;;;;;5031672;28;20544;-73
2021/09/23 06:06:43;;;;;;;5.97;5.10;;;9.10;99.90;;;;;;5033461;28;20466;-74
2021/09/23 06:09:29;;;;;;;13.50;6.07;;;9.20;99.90;;;;;;5029469;28;20436;-74
2021/09/23 06:12:15;;;;;;;8.63;6.57;;;9.30;99.90;;;;;;5027635;28;20578;-74
2021/09/23 06:15:00;;;;;;;9.97;6.40;;;9.50;99.90;;;;;;5028644;28;20457;-74
2021/09/23 06:17:46;;;;;;;11.40;5.57;;;9.60;99.90;;;;;;5026719;28;20513;-74
2021/09/23 06:20:33;;;;;;;41.90;9.17;;;9.60;99.90;;;;;;5024612;28;20451;-74
2021/09/23 06:23:19;;;;;;;9.73;8.60;;;9.60;99.90;;;;;;5027271;28;20474;-74
2021/09/23 06:26:05;;;;;;;11.57;8.57;;;9.70;99.90;;;;;;5031903;28;20510;-74
2021/09/23 06:28:51;;;;;;;6.83;6.00;;;9.80;99.90;;;;;;5032275;28;20936;-74
2021/09/23 06:31:37;;;;;;;13.40;5.53;;;9.90;99.90;;;;;;5031919;28;20448;-73
2021/09/23 06:34:22;;;;;;;7.07;5.33;;;10.00;99.90;;;;;;5030956;28;20477;-72
2021/09/23 06:37:10;;;;;;;6.20;4.60;;;10.00;99.90;;;;;;5032636;28;20976;-75
2021/09/23 06:39:56;;;;;;;11.13;5.10;;;10.10;99.90;;;;;;5031563;28;20610;-74
2021/09/23 06:42:42;;;;;;;6.97;5.50;;;10.10;99.90;;;;;;5026336;28;20439;-75
2021/09/23 06:45:27;;;;;;;6.67;4.67;;;10.20;99.90;;;;;;5024467;28;20594;-74
2021/09/23 06:48:13;;;;;;;9.60;5.53;;;10.30;99.90;;;;;;5032385;28;20470;-75
2021/09/23 06:50:59;;;;;;;7.40;5.27;;;10.30;99.90;;;;;;5033404;28;20550;-75
2021/09/23 06:53:47;;;;;;;6.10;4.60;;;10.30;99.90;;;;;;5034295;28;20410;-75
2021/09/23 06:56:34;;;;;;;7.07;4.50;;;10.20;99.90;;;;;;5030623;28;20553;-75
2021/09/23 06:59:19;;;;;;;5.80;4.77;;;10.30;99.90;;;;;;5032235;28;20459;-75
2021/09/23 07:02:05;;;;;;;6.10;5.50;;;10.50;99.90;;;;;;5031979;28;20427;-74
2021/09/23 07:04:51;;;;;;;5.90;5.30;;;10.70;99.90;;;;;;5032344;28;20486;-75
2021/09/23 07:07:36;;;;;;;6.03;4.80;;;10.80;99.90;;;;;;5031115;28;20455;-75
2021/09/23 07:10:23;;;;;;;6.97;5.17;;;10.80;99.90;;;;;;5030994;28;20505;-74
2021/09/23 07:13:09;;;;;;;5.57;5.00;;;10.80;99.90;;;;;;5032129;28;20452;-75
2021/09/23 07:15:55;;;;;;;7.40;5.67;;;10.80;99.90;;;;;;5028104;28;20880;-74
2021/09/23 07:18:41;;;;;;;6.57;5.87;;;10.90;99.90;;;;;;5027674;28;20797;-76
2021/09/23 07:21:27;;;;;;;7.00;6.10;;;11.10;99.90;;;;;;5033865;28;20412;-75
2021/09/23 07:24:12;;;;;;;9.33;6.47;;;11.00;99.90;;;;;;5032600;28;20472;-74
2021/09/23 07:26:59;;;;;;;7.27;5.97;;;11.00;99.90;;;;;;5032957;28;20494;-74
2021/09/23 07:29:45;;;;;;;7.50;6.23;;;11.00;99.90;;;;;;5024924;28;20448;-74
2021/09/23 07:32:31;;;;;;;10.53;6.43;;;11.10;99.90;;;;;;5029295;28;20463;-73
2021/09/23 07:35:16;;;;;;;10.93;6.60;;;11.20;99.90;;;;;;5023938;28;20440;-75
2021/09/23 07:38:02;;;;;;;9.50;8.50;;;11.40;99.90;;;;;;5034206;28;20446;-75
2021/09/23 07:40:47;;;;;;;8.90;7.87;;;11.60;99.90;;;;;;5028492;28;20453;-74
2021/09/23 07:43:34;;;;;;;9.70;7.87;;;11.80;99.90;;;;;;5026756;28;20470;-74
2021/09/23 07:46:20;;;;;;;7.43;6.73;;;12.00;99.90;;;;;;5030775;28;20537;-74
2021/09/23 07:49:06;;;;;;;9.83;7.27;;;12.10;99.90;;;;;;5033276;28;20427;-73
2021/09/23 07:51:52;;;;;;;7.43;6.67;;;12.30;99.90;;;;;;5032542;28;20450;-75
2021/09/23 07:54:38;;;;;;;7.67;6.47;;;12.50;99.90;;;;;;5023827;28;20794;-74
2021/09/23 07:57:23;;;;;;;8.60;5.90;;;12.60;99.90;;;;;;5021760;28;20811;-72
2021/09/23 08:00:12;;;;;;;11.63;6.17;;;12.70;99.90;;;;;;5028550;28;20447;-72
2021/09/23 08:02:58;;;;;;;6.70;4.57;;;12.90;99.90;;;;;;5028731;28;20418;-73
2021/09/23 08:05:43;;;;;;;5.80;4.53;;;13.10;99.90;;;;;;5029398;28;20551;-74
2021/09/23 08:08:29;;;;;;;9.23;4.73;;;13.20;99.90;;;;;;5030636;28;20439;-74
2021/09/23 08:11:14;;;;;;;4.90;4.23;;;13.40;99.90;;;;;;5036086;28;20496;-75
2021/09/23 08:14:00;;;;;;;8.53;4.97;;;13.50;99.90;;;;;;5033024;28;20467;-74
2021/09/23 08:16:48;;;;;;;5.67;4.70;;;13.60;99.90;;;;;;5013208;28;20405;-75
2021/09/23 08:19:35;;;;;;;4.97;4.00;;;13.70;99.90;;;;;;5012855;28;20400;-75
2021/09/23 08:22:21;;;;;;;9.30;4.10;;;14.00;99.90;;;;;;5013133;28;20404;-74
2021/09/23 08:25:08;;;;;;;4.63;4.00;;;14.20;99.90;;;;;;5012468;28;20977;-74
2021/09/23 08:27:53;;;;;;;5.00;4.30;;;14.40;99.90;;;;;;5013150;28;20447;-75
2021/09/23 08:30:41;;;;;;;5.53;4.93;;;14.50;99.90;;;;;;5027091;28;20451;-75
2021/09/23 08:33:28;;;;;;;16.10;5.53;;;14.70;99.90;;;;;;5033041;28;20774;-75
2021/09/23 08:36:14;;;;;;;7.60;5.27;;;14.80;99.90;;;;;;5034508;28;20929;-75
2021/09/23 08:39:00;;;;;;;8.53;5.27;;;14.90;99.90;;;;;;5032569;28;20421;-75
2021/09/23 08:41:49;;;;;;;8.17;5.27;;;15.10;99.90;;;;;;5032775;28;20925;-75
2021/09/23 08:44:35;;;;;;;10.07;5.03;;;15.20;99.90;;;;;;5029555;28;20472;-75
2021/09/23 08:47:21;;;;;;;7.43;5.73;;;15.30;99.90;;;;;;5031955;28;20444;-73
2021/09/23 08:50:12;;;;;;;7.53;5.60;;;15.40;99.90;;;;;;5031720;28;20436;-75
2021/09/23 08:52:58;;;;;;;10.13;6.37;;;15.60;99.90;;;;;;5025408;28;20437;-74
2021/09/23 08:55:44;;;;;;;19.03;7.00;;;15.70;99.90;;;;;;5032123;28;20523;-75
2021/09/23 08:58:30;;;;;;;10.70;6.40;;;15.90;99.90;;;;;;5029392;28;20423;-75
2021/09/23 09:01:17;;;;;;;12.00;8.00;;;16.00;99.90;;;;;;5031132;28;20980;-75
2021/09/23 09:04:04;;;;;;;13.40;7.67;;;16.10;99.90;;;;;;5027988;28;20439;-74
2021/09/23 09:06:53;;;;;;;12.63;7.57;;;16.20;99.90;;;;;;5031466;28;20412;-74
2021/09/23 09:09:45;;;;;;;12.43;8.03;;;16.30;99.90;;;;;;5031535;28;20509;-75
2021/09/23 09:12:31;;;;;;;17.20;7.20;;;16.40;99.90;;;;;;5025455;28;21032;-74
2021/09/23 09:15:21;;;;;;;11.63;7.03;;;16.50;99.90;;;;;;5021485;28;20573;-75
2021/09/23 09:18:15;;;;;;;8.23;6.67;;;16.70;99.90;;;;;;5028915;28;20834;-74
2021/09/23 09:21:03;;;;;;;9.60;6.50;;;16.90;99.90;;;;;;5027034;28;20545;-74
2021/09/23 09:23:52;;;;;;;7.50;5.60;;;17.00;99.90;;;;;;5030936;28;20460;-74
2021/09/23 09:26:41;;;;;;;12.63;6.83;;;17.00;99.90;;;;;;5028971;28;20420;-75
2021/09/23 09:29:26;;;;;;;10.27;6.53;;;17.20;99.90;;;;;;5026997;28;20996;-75
2021/09/23 09:32:12;;;;;;;12.40;6.07;;;17.40;99.90;;;;;;5021952;28;20533;-73
2021/09/23 09:34:58;;;;;;;7.63;5.40;;;17.50;99.90;;;;;;5023532;28;20442;-74
2021/09/23 09:37:48;;;;;;;7.43;4.00;;;17.60;99.90;;;;;;5028686;28;20433;-74
2021/09/23 09:40:38;;;;;;;5.40;3.50;;;17.70;99.90;;;;;;5024266;28;20459;-75
2021/09/23 09:43:23;;;;;;;7.13;3.63;;;17.80;99.90;;;;;;5068047;22;20475;-73
2021/09/23 09:46:23;;;;;;;5.60;4.30;;;17.90;99.90;;;;;;5025709;28;20443;-72
2021/09/23 09:49:10;;;;;;;12.57;3.80;;;18.10;99.90;;;;;;5017566;28;20625;-72
2021/09/23 09:51:58;;;;;;;11.33;3.97;;;18.20;99.90;;;;;;5026954;28;20440;-73
2021/09/23 09:54:44;;;;;;;10.20;3.33;;;18.40;99.90;;;;;;5022928;28;20434;-73
2021/09/23 09:57:31;;;;;;;11.33;3.00;;;18.60;99.90;;;;;;5023874;28;20436;-73
2021/09/23 10:00:18;;;;;;;5.17;3.33;;;18.80;96.80;;;;;;5028167;28;20776;-73
2021/09/23 10:03:04;;;;;;;7.87;3.27;;;19.00;99.50;;;;;;5023889;28;20594;-72
2021/09/23 10:05:50;;;;;;;7.50;3.00;;;19.10;93.30;;;;;;5032085;28;20452;-73
2021/09/23 10:08:35;;;;;;;7.00;3.60;;;19.20;79.90;;;;;;5026287;28;20432;-73
2021/09/23 10:11:22;;;;;;;7.77;4.37;;;19.20;81.00;;;;;;5024915;28;21140;-74
2021/09/23 10:14:10;;;;;;;7.20;3.40;;;19.00;83.10;;;;;;5021956;28;20454;-73
2021/09/23 10:16:57;;;;;;;3.60;3.00;;;19.00;86.30;;;;;;5025893;28;20539;-73
2021/09/23 10:19:43;;;;;;;9.60;3.70;;;19.10;87.50;;;;;;5029751;28;20498;-71
2021/09/23 10:22:29;;;;;;;6.10;3.90;;;19.20;87.20;;;;;;5031017;28;20406;-71
2021/09/23 10:25:17;;;;;;;6.10;2.80;;;19.30;82.80;;;;;;5028186;28;20491;-72
2021/09/23 10:28:07;;;;;;;7.33;3.00;;;19.50;82.30;;;;;;5029802;28;20450;-71
2021/09/23 10:30:54;;;;;;;6.07;3.50;;;19.70;81.80;;;;;;5027163;28;20475;-70
2021/09/23 10:33:40;;;;;;;7.53;2.77;;;19.70;76.50;;;;;;5030547;28;20432;-69
2021/09/23 10:36:28;;;;;;;5.90;3.00;;;20.00;78.20;;;;;;5029424;28;20433;-70
2021/09/23 10:39:17;;;;;;;7.30;3.80;;;20.40;77.20;;;;;;5025043;28;21066;-70
2021/09/23 10:42:06;;;;;;;6.57;3.90;;;20.60;71.00;;;;;;5027455;28;20580;-70
2021/09/23 10:44:53;;;;;;;6.17;3.07;;;20.90;72.90;;;;;;5028089;28;20481;-70
2021/09/23 10:47:44;;;;;;;8.20;4.00;;;21.10;67.00;;;;;;5028646;28;20479;-70
2021/09/23 10:50:32;;;;;;;6.87;4.30;;;21.00;62.80;;;;;;5021434;28;20440;-70
2021/09/23 10:53:18;;;;;;;5.83;3.60;;;21.10;65.40;;;;;;5026783;28;20440;-70
2021/09/23 10:56:05;;;;;;;8.37;4.03;;;21.10;61.60;;;;;;5022591;28;20541;-70
2021/09/23 10:58:52;;;;;;;5.20;2.80;;;21.30;63.10;;;;;;5025899;28;20493;-70
2021/09/23 11:01:37;;;;;;;5.57;2.50;;;21.30;59.00;;;;;;5027956;28;20947;-70
2021/09/23 11:04:24;;;;;;;6.80;3.10;;;21.20;60.10;;;;;;5026508;28;20461;-70
2021/09/23 11:07:10;;;;;;;12.27;3.40;;;21.10;59.00;;;;;;5031079;28;20424;-70
2021/09/23 11:10:07;;;;;;;7.50;3.47;;;21.20;62.30;;;;;;5030223;28;20410;-70
2021/09/23 11:12:54;;;;;;;7.13;3.47;;;21.30;61.60;;;;;;5027839;28;20950;-70
2021/09/23 11:15:42;;;;;;;5.13;3.00;;;21.30;61.00;;;;;;5030999;28;20530;-70
2021/09/23 11:18:29;;;;;;;7.03;3.47;;;21.30;62.00;;;;;;5027573;28;20402;-69
2021/09/23 11:21:16;;;;;;;5.77;3.33;;;21.40;61.10;;;;;;5031833;28;21010;-70
2021/09/23 11:24:03;;;;;;;6.93;3.97;;;21.30;60.30;;;;;;5029827;28;20593;-70
2021/09/23 11:26:49;;;;;;;5.60;3.13;;;21.40;62.80;;;;;;5029203;28;20429;-70
2021/09/23 11:29:35;;;;;;;5.37;3.53;;;21.60;62.80;;;;;;5027846;28;20441;-70
2021/09/23 11:32:22;;;;;;;4.33;2.87;;;21.70;60.90;;;;;;5035571;28;20473;-69
2021/09/23 11:35:09;;;;;;;5.00;3.10;;;21.80;58.80;;;;;;5032496;28;20397;-71
2021/09/23 11:37:57;;;;;;;7.50;3.80;;;21.90;60.20;;;;;;5033129;28;20434;-70
2021/09/23 11:40:45;;;;;;;7.30;3.30;;;22.10;61.70;;;;;;5028393;28;21018;-70
2021/09/23 11:43:30;;;;;;;4.03;3.20;;;22.20;56.50;;;;;;5025846;28;20920;-71
2021/09/23 11:46:16;;;;;;;7.67;3.90;;;22.30;56.10;;;;;;5026648;28;20835;-71
2021/09/23 11:49:05;;;;;;;5.17;2.73;;;22.50;56.00;;;;;;5030416;28;20450;-71
2021/09/23 11:51:51;;;;;;;5.30;3.87;;;22.60;58.30;;;;;;5033531;28;20443;-72
2021/09/23 11:54:38;;;;;;;7.63;3.83;;;22.40;54.10;;;;;;5030804;28;20498;-71
2021/09/23 11:57:25;;;;;;;8.83;3.80;;;22.30;53.80;;;;;;5033305;28;20785;-70
2021/09/23 12:00:12;;;;;;;7.23;3.13;;;22.30;54.70;;;;;;5033239;28;20397;-71
2021/09/23 12:02:58;;;;;;;5.43;4.20;;;22.30;55.40;;;;;;5033561;28;20447;-70
2021/09/23 12:05:45;;;;;;;8.27;4.20;;;22.20;55.70;;;;;;5034562;28;20498;-72
2021/09/23 12:08:31;;;;;;;4.83;3.53;;;22.40;56.40;;;;;;5026615;28;20405;-72
2021/09/23 12:11:18;;;;;;;10.50;3.57;;;22.60;55.60;;;;;;5030909;28;20434;-71
2021/09/23 12:14:08;;;;;;;5.20;3.40;;;22.90;53.20;;;;;;5032293;28;20438;-71
2021/09/23 12:17:02;;;;;;;5.70;3.40;;;22.90;52.20;;;;;;5032645;28;20573;-71
2021/09/23 12:19:52;;;;;;;8.40;3.20;;;23.00;53.30;;;;;;5032889;28;20419;-72
2021/09/23 12:22:38;;;;;;;5.03;3.40;;;22.90;53.40;;;;;;5031850;28;20934;-71
2021/09/23 12:25:24;;;;;;;8.43;3.57;;;22.90;55.70;;;;;;5030851;28;20663;-71
2021/09/23 12:28:15;;;;;;;5.30;3.93;;;23.20;53.60;;;;;;5032352;28;20470;-71
2021/09/23 12:31:02;;;;;;;6.30;3.57;;;23.00;51.70;;;;;;5032691;28;20499;-71
2021/09/23 12:33:53;;;;;;;7.20;3.67;;;23.00;52.00;;;;;;5029189;28;20474;-71
2021/09/23 12:36:43;;;;;;;5.97;3.80;;;23.20;52.60;;;;;;5020529;28;20426;-72
2021/09/23 12:39:38;;;;;;;5.20;3.80;;;23.20;50.60;;;;;;5024009;28;20424;-71
2021/09/23 12:42:26;;;;;;;7.17;3.60;;;23.20;50.20;;;;;;5024859;28;20466;-70
2021/09/23 12:45:16;;;;;;;5.60;3.73;;;23.30;51.10;;;;;;5028894;28;20475;-71
2021/09/23 12:48:01;;;;;;;6.20;4.20;;;23.40;51.10;;;;;;5022367;28;20950;-71
2021/09/23 12:50:47;;;;;;;5.30;4.37;;;23.50;50.20;;;;;;5017467;28;20435;-71
2021/09/23 12:53:34;;;;;;;5.90;4.10;;;23.30;49.30;;;;;;5028299;28;20476;-72
2021/09/23 12:56:25;;;;;;;5.80;4.40;;;23.50;49.90;;;;;;5029755;28;20449;-71
2021/09/23 12:59:19;;;;;;;5.00;3.70;;;23.80;50.40;;;;;;5020785;28;20425;-71
2021/09/23 13:02:12;;;;;;;5.60;3.80;;;24.20;51.50;;;;;;5018256;28;20472;-72
2021/09/23 13:05:07;;;;;;;9.63;3.87;;;24.60;50.10;;;;;;5026557;28;20467;-73
2021/09/23 13:07:53;;;;;;;5.40;4.30;;;24.90;49.50;;;;;;5029548;28;20463;-71
2021/09/23 13:10:39;;;;;;;5.33;3.67;;;25.00;47.90;;;;;;5025164;28;20600;-71
2021/09/23 13:13:28;;;;;;;6.10;4.23;;;24.80;47.20;;;;;;5022128;28;20464;-71
2021/09/23 13:16:14;;;;;;;13.40;4.23;;;24.90;47.60;;;;;;5020318;28;20457;-72
2021/09/23 13:19:00;;;;;;;6.33;3.60;;;25.00;47.30;;;;;;5029166;28;20525;-72
2021/09/23 13:21:47;;;;;;;12.70;4.33;;;25.30;46.80;;;;;;5028991;28;20952;-72
2021/09/23 13:24:33;;;;;;;5.93;3.93;;;25.50;46.50;;;;;;5027770;28;20440;-72
2021/09/23 13:27:19;;;;;;;5.73;3.53;;;25.30;46.50;;;;;;5022208;28;20443;-72
2021/09/23 13:30:08;;;;;;;6.47;4.60;;;25.20;45.20;;;;;;5031336;28;20431;-72
2021/09/23 13:32:54;;;;;;;6.70;3.33;;;25.50;46.30;;;;;;5031193;28;20505;-72
2021/09/23 13:35:41;;;;;;;7.57;4.00;;;25.80;45.50;;;;;;5030314;28;20423;-72
2021/09/23 13:38:28;;;;;;;6.67;4.00;;;25.90;45.60;;;;;;5028909;28;20507;-71
2021/09/23 13:41:14;;;;;;;5.20;4.00;;;25.60;45.40;;;;;;5018491;28;20521;-72
2021/09/23 13:44:01;;;;;;;5.80;3.87;;;25.30;46.50;;;;;;5028106;28;20568;-72
2021/09/23 13:46:47;;;;;;;4.07;3.10;;;25.10;46.70;;;;;;5022575;28;20596;-72
2021/09/23 13:49:32;;;;;;;4.50;3.50;;;24.70;47.70;;;;;;5027824;28;20453;-72
2021/09/23 13:52:19;;;;;;;5.83;3.90;;;24.90;47.40;;;;;;5023048;28;20449;-72
2021/09/23 13:55:07;;;;;;;8.53;3.90;;;25.00;46.90;;;;;;5028219;28;20489;-72
2021/09/23 13:57:53;;;;;;;7.40;3.83;;;25.00;45.60;;;;;;5030031;28;20816;-72
2021/09/23 14:00:39;;;;;;;6.97;3.57;;;25.10;46.70;;;;;;5026489;28;20469;-72
2021/09/23 14:03:28;;;;;;;3.97;3.40;;;25.20;46.40;;;;;;5028222;28;20464;-72
2021/09/23 14:06:14;;;;;;;6.47;3.50;;;25.20;45.50;;;;;;5028737;28;20848;-71
2021/09/23 14:09:01;;;;;;;5.60;3.70;;;25.30;47.20;;;;;;5024890;28;20979;-71
2021/09/23 14:11:47;;;;;;;4.53;3.20;;;25.60;45.40;;;;;;5027344;28;20441;-71
2021/09/23 14:14:33;;;;;;;8.03;3.13;;;25.50;45.80;;;;;;5026704;28;20468;-71
2021/09/23 14:17:18;;;;;;;14.03;3.83;;;25.50;45.30;;;;;;5028751;28;20464;-71
2021/09/23 14:20:05;;;;;;;5.70;3.33;;;25.50;45.30;;;;;;5026558;28;21010;-71
2021/09/23 14:22:50;;;;;;;19.03;3.87;;;25.70;45.40;;;;;;5028698;28;20443;-71
2021/09/23 14:25:38;;;;;;;8.80;3.43;;;25.30;45.90;;;;;;5024671;28;20477;-71
2021/09/23 14:28:23;;;;;;;5.87;3.80;;;25.30;45.10;;;;;;5022390;28;20459;-71